sensor_id;sensor_type;location;lat;lon;timestamp;P1;durP1;ratioP1;P2;durP2;ratioP2
70416;SDS011;57839;51.332;12.410;2022-12-07T00:01:28;22.45;;;12.02;;
70416;SDS011;57839;51.332;12.410;2022-12-07T00:03:58;20.45;;;12.20;;
70416;SDS011;57839;51.332;12.410;2022-12-07T00:06:32;19.23;;;11.55;;
70416;SDS011;57839;51.332;12.410;2022-12-07T00:08:58;20.52;;;12.73;;
70416;SDS011;57839;51.332;12.410;2022-12-07T00:11:24;18.83;;;11.48;;
70416;SDS011;57839;51.332;12.410;2022-12-07T00:13:53;19.27;;;10.57;;
70416;SDS011;57839;51.332;12.410;2022-12-07T00:16:24;20.50;;;10.98;;
70416;SDS011;57839;51.332;12.410;2022-12-07T00:18:52;20.90;;;11.73;;
70416;SDS011;57839;51.332;12.410;2022-12-07T00:21:22;19.55;;;11.23;;
70416;SDS011;57839;51.332;12.410;2022-12-07T00:23:49;20.88;;;11.98;;
70416;SDS011;57839;51.332;12.410;2022-12-07T00:26:16;18.48;;;11.18;;
70416;SDS011;57839;51.332;12.410;2022-12-07T00:28:46;21.40;;;12.10;;
70416;SDS011;57839;51.332;12.410;2022-12-07T00:31:13;19.17;;;11.25;;
70416;SDS011;57839;51.332;12.410;2022-12-07T00:33:39;19.65;;;11.57;;
70416;SDS011;57839;51.332;12.410;2022-12-07T00:36:09;18.55;;;10.68;;
70416;SDS011;57839;51.332;12.410;2022-12-07T00:38:36;19.58;;;11.25;;
70416;SDS011;57839;51.332;12.410;2022-12-07T00:41:03;19.98;;;11.73;;
70416;SDS011;57839;51.332;12.410;2022-12-07T00:43:30;19.00;;;11.43;;
70416;SDS011;57839;51.332;12.410;2022-12-07T00:45:56;20.58;;;12.02;;
70416;SDS011;57839;51.332;12.410;2022-12-07T00:48:22;20.38;;;12.05;;
70416;SDS011;57839;51.332;12.410;2022-12-07T00:50:48;21.27;;;12.35;;
70416;SDS011;57839;51.332;12.410;2022-12-07T00:53:14;20.20;;;12.02;;
70416;SDS011;57839;51.332;12.410;2022-12-07T00:55:40;22.27;;;12.93;;
70416;SDS011;57839;51.332;12.410;2022-12-07T00:58:05;21.60;;;13.55;;
70416;SDS011;57839;51.332;12.410;2022-12-07T01:00:31;19.67;;;12.02;;
70416;SDS011;57839;51.332;12.410;2022-12-07T01:02:58;19.90;;;11.70;;
70416;SDS011;57839;51.332;12.410;2022-12-07T01:05:24;18.90;;;11.63;;
70416;SDS011;57839;51.332;12.410;2022-12-07T01:07:50;20.98;;;12.10;;
70416;SDS011;57839;51.332;12.410;2022-12-07T01:10:15;20.17;;;12.43;;
70416;SDS011;57839;51.332;12.410;2022-12-07T01:12:41;20.40;;;11.57;;
70416;SDS011;57839;51.332;12.410;2022-12-07T01:15:07;17.67;;;11.50;;
70416;SDS011;57839;51.332;12.410;2022-12-07T01:17:33;20.13;;;12.52;;
70416;SDS011;57839;51.332;12.410;2022-12-07T01:19:59;20.75;;;12.45;;
70416;SDS011;57839;51.332;12.410;2022-12-07T01:22:25;20.05;;;12.63;;
70416;SDS011;57839;51.332;12.410;2022-12-07T01:24:51;21.30;;;11.95;;
70416;SDS011;57839;51.332;12.410;2022-12-07T01:27:16;19.13;;;11.68;;
70416;SDS011;57839;51.332;12.410;2022-12-07T01:29:42;18.92;;;12.25;;
70416;SDS011;57839;51.332;12.410;2022-12-07T01:32:07;22.52;;;12.38;;
70416;SDS011;57839;51.332;12.410;2022-12-07T01:34:33;22.67;;;13.77;;
70416;SDS011;57839;51.332;12.410;2022-12-07T01:36:58;21.90;;;12.90;;
70416;SDS011;57839;51.332;12.410;2022-12-07T01:39:24;20.85;;;13.02;;
70416;SDS011;57839;51.332;12.410;2022-12-07T01:41:50;19.15;;;12.07;;
70416;SDS011;57839;51.332;12.410;2022-12-07T01:47:01;22.55;;;12.18;;
70416;SDS011;57839;51.332;12.410;2022-12-07T01:49:38;23.35;;;11.77;;
70416;SDS011;57839;51.332;12.410;2022-12-07T01:54:39;18.02;;;11.65;;
70416;SDS011;57839;51.332;12.410;2022-12-07T01:57:04;20.95;;;11.88;;
70416;SDS011;57839;51.332;12.410;2022-12-07T01:59:31;18.38;;;11.20;;
70416;SDS011;57839;51.332;12.410;2022-12-07T02:01:57;21.45;;;12.68;;
70416;SDS011;57839;51.332;12.410;2022-12-07T02:04:23;23.15;;;12.27;;
70416;SDS011;57839;51.332;12.410;2022-12-07T02:06:48;21.95;;;12.60;;
70416;SDS011;57839;51.332;12.410;2022-12-07T02:09:15;18.05;;;11.45;;
70416;SDS011;57839;51.332;12.410;2022-12-07T02:11:40;19.13;;;11.32;;
70416;SDS011;57839;51.332;12.410;2022-12-07T02:14:06;17.35;;;11.32;;
70416;SDS011;57839;51.332;12.410;2022-12-07T02:16:35;21.25;;;11.25;;
70416;SDS011;57839;51.332;12.410;2022-12-07T02:25:13;19.17;;;11.40;;
70416;SDS011;57839;51.332;12.410;2022-12-07T02:30:27;19.95;;;12.23;;
70416;SDS011;57839;51.332;12.410;2022-12-07T02:35:55;23.45;;;13.25;;
70416;SDS011;57839;51.332;12.410;2022-12-07T02:41:06;20.33;;;11.85;;
70416;SDS011;57839;51.332;12.410;2022-12-07T02:43:39;20.95;;;11.40;;
70416;SDS011;57839;51.332;12.410;2022-12-07T02:46:11;20.48;;;11.70;;
70416;SDS011;57839;51.332;12.410;2022-12-07T02:48:42;19.85;;;11.23;;
70416;SDS011;57839;51.332;12.410;2022-12-07T02:51:08;20.52;;;10.77;;
70416;SDS011;57839;51.332;12.410;2022-12-07T02:53:38;18.65;;;10.68;;
70416;SDS011;57839;51.332;12.410;2022-12-07T02:56:13;18.90;;;11.23;;
70416;SDS011;57839;51.332;12.410;2022-12-07T02:58:54;20.25;;;11.25;;
70416;SDS011;57839;51.332;12.410;2022-12-07T03:07:05;16.40;;;9.70;;
70416;SDS011;57839;51.332;12.410;2022-12-07T03:09:57;18.60;;;10.80;;
70416;SDS011;57839;51.332;12.410;2022-12-07T03:12:31;17.60;;;10.10;;
70416;SDS011;57839;51.332;12.410;2022-12-07T03:18:12;17.98;;;10.38;;
70416;SDS011;57839;51.332;12.410;2022-12-07T03:20:38;18.17;;;9.73;;
70416;SDS011;57839;51.332;12.410;2022-12-07T03:23:05;16.00;;;9.10;;
70416;SDS011;57839;51.332;12.410;2022-12-07T03:25:35;16.73;;;10.25;;
70416;SDS011;57839;51.332;12.410;2022-12-07T03:28:05;18.05;;;9.30;;
70416;SDS011;57839;51.332;12.410;2022-12-07T03:30:37;29.38;;;16.55;;
70416;SDS011;57839;51.332;12.410;2022-12-07T03:33:15;15.60;;;8.65;;
70416;SDS011;57839;51.332;12.410;2022-12-07T03:35:48;17.35;;;9.77;;
70416;SDS011;57839;51.332;12.410;2022-12-07T03:38:19;14.75;;;9.15;;
70416;SDS011;57839;51.332;12.410;2022-12-07T03:41:16;16.27;;;10.25;;
70416;SDS011;57839;51.332;12.410;2022-12-07T03:43:45;16.17;;;9.52;;
70416;SDS011;57839;51.332;12.410;2022-12-07T03:48:59;44.13;;;25.67;;
70416;SDS011;57839;51.332;12.410;2022-12-07T03:51:40;17.00;;;10.35;;
70416;SDS011;57839;51.332;12.410;2022-12-07T03:56:38;15.43;;;9.40;;
70416;SDS011;57839;51.332;12.410;2022-12-07T03:59:05;16.40;;;9.50;;
70416;SDS011;57839;51.332;12.410;2022-12-07T04:01:31;20.48;;;11.60;;
70416;SDS011;57839;51.332;12.410;2022-12-07T04:03:57;20.52;;;10.98;;
70416;SDS011;57839;51.332;12.410;2022-12-07T04:06:22;16.60;;;9.85;;
70416;SDS011;57839;51.332;12.410;2022-12-07T04:08:48;15.75;;;8.90;;
70416;SDS011;57839;51.332;12.410;2022-12-07T04:11:13;17.27;;;9.32;;
70416;SDS011;57839;51.332;12.410;2022-12-07T04:13:39;16.10;;;8.98;;
70416;SDS011;57839;51.332;12.410;2022-12-07T04:16:23;17.08;;;9.52;;
70416;SDS011;57839;51.332;12.410;2022-12-07T04:18:48;14.63;;;9.25;;
70416;SDS011;57839;51.332;12.410;2022-12-07T04:21:14;15.88;;;9.23;;
70416;SDS011;57839;51.332;12.410;2022-12-07T04:23:39;14.77;;;8.50;;
70416;SDS011;57839;51.332;12.410;2022-12-07T04:26:05;16.48;;;8.52;;
70416;SDS011;57839;51.332;12.410;2022-12-07T04:28:34;19.70;;;9.07;;
70416;SDS011;57839;51.332;12.410;2022-12-07T04:31:26;14.18;;;8.60;;
70416;SDS011;57839;51.332;12.410;2022-12-07T04:33:51;16.25;;;9.02;;
70416;SDS011;57839;51.332;12.410;2022-12-07T04:36:17;13.65;;;8.68;;
70416;SDS011;57839;51.332;12.410;2022-12-07T04:38:44;17.30;;;9.25;;
70416;SDS011;57839;51.332;12.410;2022-12-07T04:41:10;15.85;;;8.82;;
70416;SDS011;57839;51.332;12.410;2022-12-07T04:43:35;15.70;;;9.23;;
70416;SDS011;57839;51.332;12.410;2022-12-07T04:46:01;14.02;;;8.90;;
70416;SDS011;57839;51.332;12.410;2022-12-07T04:48:27;15.95;;;8.07;;
70416;SDS011;57839;51.332;12.410;2022-12-07T04:50:52;13.43;;;8.50;;
70416;SDS011;57839;51.332;12.410;2022-12-07T04:53:18;14.20;;;9.32;;
70416;SDS011;57839;51.332;12.410;2022-12-07T04:55:44;16.65;;;9.40;;
70416;SDS011;57839;51.332;12.410;2022-12-07T04:58:10;18.77;;;9.25;;
70416;SDS011;57839;51.332;12.410;2022-12-07T05:00:36;17.90;;;9.63;;
70416;SDS011;57839;51.332;12.410;2022-12-07T05:03:01;14.75;;;9.25;;
70416;SDS011;57839;51.332;12.410;2022-12-07T05:05:27;14.77;;;9.30;;
70416;SDS011;57839;51.332;12.410;2022-12-07T05:07:53;16.42;;;8.98;;
70416;SDS011;57839;51.332;12.410;2022-12-07T05:10:18;15.75;;;9.30;;
70416;SDS011;57839;51.332;12.410;2022-12-07T05:12:44;18.20;;;9.43;;
70416;SDS011;57839;51.332;12.410;2022-12-07T05:15:10;14.48;;;9.05;;
70416;SDS011;57839;51.332;12.410;2022-12-07T05:17:36;15.57;;;9.20;;
70416;SDS011;57839;51.332;12.410;2022-12-07T05:20:02;18.52;;;9.80;;
70416;SDS011;57839;51.332;12.410;2022-12-07T05:22:28;14.90;;;9.35;;
70416;SDS011;57839;51.332;12.410;2022-12-07T05:24:54;15.75;;;10.55;;
70416;SDS011;57839;51.332;12.410;2022-12-07T05:27:20;17.85;;;10.23;;
70416;SDS011;57839;51.332;12.410;2022-12-07T05:29:45;16.02;;;9.73;;
70416;SDS011;57839;51.332;12.410;2022-12-07T05:32:11;16.30;;;10.57;;
70416;SDS011;57839;51.332;12.410;2022-12-07T05:34:37;16.42;;;10.10;;
70416;SDS011;57839;51.332;12.410;2022-12-07T05:37:02;18.58;;;10.40;;
70416;SDS011;57839;51.332;12.410;2022-12-07T05:39:28;18.58;;;10.98;;
70416;SDS011;57839;51.332;12.410;2022-12-07T05:41:53;17.20;;;10.82;;
70416;SDS011;57839;51.332;12.410;2022-12-07T05:44:37;18.45;;;10.68;;
70416;SDS011;57839;51.332;12.410;2022-12-07T05:47:06;19.10;;;11.02;;
70416;SDS011;57839;51.332;12.410;2022-12-07T05:49:32;17.67;;;10.38;;
70416;SDS011;57839;51.332;12.410;2022-12-07T05:51:57;18.52;;;10.48;;
70416;SDS011;57839;51.332;12.410;2022-12-07T05:54:23;20.15;;;10.93;;
70416;SDS011;57839;51.332;12.410;2022-12-07T05:56:48;19.98;;;11.25;;
70416;SDS011;57839;51.332;12.410;2022-12-07T05:59:14;22.00;;;11.90;;
70416;SDS011;57839;51.332;12.410;2022-12-07T06:01:49;17.38;;;11.07;;
70416;SDS011;57839;51.332;12.410;2022-12-07T06:04:21;17.98;;;10.45;;
70416;SDS011;57839;51.332;12.410;2022-12-07T06:06:48;18.58;;;11.10;;
70416;SDS011;57839;51.332;12.410;2022-12-07T06:09:14;20.23;;;11.63;;
70416;SDS011;57839;51.332;12.410;2022-12-07T06:11:40;19.85;;;11.25;;
70416;SDS011;57839;51.332;12.410;2022-12-07T06:14:24;20.35;;;12.23;;
70416;SDS011;57839;51.332;12.410;2022-12-07T06:16:50;19.25;;;11.07;;
70416;SDS011;57839;51.332;12.410;2022-12-07T06:19:16;19.05;;;11.52;;
70416;SDS011;57839;51.332;12.410;2022-12-07T06:21:41;18.70;;;10.90;;
70416;SDS011;57839;51.332;12.410;2022-12-07T06:24:08;22.88;;;13.65;;
70416;SDS011;57839;51.332;12.410;2022-12-07T06:26:35;24.23;;;12.55;;
70416;SDS011;57839;51.332;12.410;2022-12-07T06:29:01;22.50;;;12.73;;
70416;SDS011;57839;51.332;12.410;2022-12-07T06:31:26;24.08;;;12.93;;
70416;SDS011;57839;51.332;12.410;2022-12-07T06:33:56;22.25;;;12.70;;
70416;SDS011;57839;51.332;12.410;2022-12-07T06:36:23;21.02;;;13.57;;
70416;SDS011;57839;51.332;12.410;2022-12-07T06:38:48;21.05;;;12.18;;
70416;SDS011;57839;51.332;12.410;2022-12-07T06:41:14;21.23;;;13.20;;
70416;SDS011;57839;51.332;12.410;2022-12-07T06:43:39;23.15;;;12.98;;
70416;SDS011;57839;51.332;12.410;2022-12-07T06:46:05;23.67;;;13.73;;
70416;SDS011;57839;51.332;12.410;2022-12-07T06:48:30;22.58;;;13.80;;
70416;SDS011;57839;51.332;12.410;2022-12-07T06:50:56;25.35;;;14.43;;
70416;SDS011;57839;51.332;12.410;2022-12-07T06:53:22;25.17;;;14.02;;
70416;SDS011;57839;51.332;12.410;2022-12-07T06:55:47;24.83;;;14.38;;
70416;SDS011;57839;51.332;12.410;2022-12-07T06:58:13;22.80;;;13.75;;
70416;SDS011;57839;51.332;12.410;2022-12-07T07:00:39;26.70;;;15.43;;
70416;SDS011;57839;51.332;12.410;2022-12-07T07:03:04;26.15;;;15.40;;
70416;SDS011;57839;51.332;12.410;2022-12-07T07:05:30;25.13;;;14.45;;
70416;SDS011;57839;51.332;12.410;2022-12-07T07:07:55;24.40;;;14.18;;
70416;SDS011;57839;51.332;12.410;2022-12-07T07:10:21;23.30;;;13.65;;
70416;SDS011;57839;51.332;12.410;2022-12-07T07:12:46;24.65;;;14.55;;
70416;SDS011;57839;51.332;12.410;2022-12-07T07:15:11;26.10;;;14.65;;
70416;SDS011;57839;51.332;12.410;2022-12-07T07:17:37;26.33;;;14.88;;
70416;SDS011;57839;51.332;12.410;2022-12-07T07:20:03;24.05;;;14.15;;
70416;SDS011;57839;51.332;12.410;2022-12-07T07:22:29;26.02;;;14.65;;
70416;SDS011;57839;51.332;12.410;2022-12-07T07:24:54;22.75;;;14.75;;
70416;SDS011;57839;51.332;12.410;2022-12-07T07:27:20;26.38;;;15.27;;
70416;SDS011;57839;51.332;12.410;2022-12-07T07:29:45;25.98;;;15.63;;
70416;SDS011;57839;51.332;12.410;2022-12-07T07:32:11;25.60;;;14.65;;
70416;SDS011;57839;51.332;12.410;2022-12-07T07:34:37;24.58;;;13.95;;
70416;SDS011;57839;51.332;12.410;2022-12-07T07:37:03;26.83;;;14.40;;
70416;SDS011;57839;51.332;12.410;2022-12-07T07:39:28;24.20;;;14.55;;
70416;SDS011;57839;51.332;12.410;2022-12-07T07:41:54;24.25;;;13.27;;
70416;SDS011;57839;51.332;12.410;2022-12-07T07:44:19;22.73;;;13.98;;
70416;SDS011;57839;51.332;12.410;2022-12-07T07:46:45;26.70;;;14.57;;
70416;SDS011;57839;51.332;12.410;2022-12-07T07:49:10;25.30;;;14.63;;
70416;SDS011;57839;51.332;12.410;2022-12-07T07:51:36;23.00;;;13.90;;
70416;SDS011;57839;51.332;12.410;2022-12-07T07:54:02;23.52;;;14.07;;
70416;SDS011;57839;51.332;12.410;2022-12-07T07:56:28;25.52;;;14.38;;
70416;SDS011;57839;51.332;12.410;2022-12-07T07:58:54;23.00;;;14.32;;
70416;SDS011;57839;51.332;12.410;2022-12-07T08:01:20;24.77;;;13.85;;
70416;SDS011;57839;51.332;12.410;2022-12-07T08:03:48;23.80;;;13.90;;
70416;SDS011;57839;51.332;12.410;2022-12-07T08:06:14;25.15;;;13.85;;
70416;SDS011;57839;51.332;12.410;2022-12-07T08:08:40;19.88;;;12.80;;
70416;SDS011;57839;51.332;12.410;2022-12-07T08:11:06;23.48;;;13.63;;
70416;SDS011;57839;51.332;12.410;2022-12-07T08:13:32;20.40;;;11.88;;
70416;SDS011;57839;51.332;12.410;2022-12-07T08:15:58;22.52;;;12.40;;
70416;SDS011;57839;51.332;12.410;2022-12-07T08:18:24;22.70;;;12.45;;
70416;SDS011;57839;51.332;12.410;2022-12-07T08:20:49;33.88;;;20.50;;
70416;SDS011;57839;51.332;12.410;2022-12-07T08:23:15;22.38;;;13.50;;
70416;SDS011;57839;51.332;12.410;2022-12-07T08:25:40;22.17;;;13.32;;
70416;SDS011;57839;51.332;12.410;2022-12-07T08:28:06;24.17;;;12.77;;
70416;SDS011;57839;51.332;12.410;2022-12-07T08:30:32;21.52;;;12.48;;
70416;SDS011;57839;51.332;12.410;2022-12-07T08:32:57;19.83;;;12.02;;
70416;SDS011;57839;51.332;12.410;2022-12-07T08:35:23;18.90;;;11.95;;
70416;SDS011;57839;51.332;12.410;2022-12-07T08:37:49;20.17;;;12.80;;
70416;SDS011;57839;51.332;12.410;2022-12-07T08:40:15;21.50;;;11.88;;
70416;SDS011;57839;51.332;12.410;2022-12-07T08:42:44;22.42;;;12.02;;
70416;SDS011;57839;51.332;12.410;2022-12-07T08:45:14;22.10;;;12.02;;
70416;SDS011;57839;51.332;12.410;2022-12-07T08:47:40;19.92;;;12.95;;
70416;SDS011;57839;51.332;12.410;2022-12-07T08:50:07;21.80;;;12.27;;
70416;SDS011;57839;51.332;12.410;2022-12-07T08:52:35;27.40;;;16.23;;
70416;SDS011;57839;51.332;12.410;2022-12-07T08:55:01;19.15;;;11.88;;
70416;SDS011;57839;51.332;12.410;2022-12-07T08:57:28;20.45;;;12.15;;
70416;SDS011;57839;51.332;12.410;2022-12-07T08:59:54;19.55;;;11.57;;
70416;SDS011;57839;51.332;12.410;2022-12-07T09:02:20;19.85;;;11.75;;
70416;SDS011;57839;51.332;12.410;2022-12-07T09:04:45;23.90;;;11.52;;
70416;SDS011;57839;51.332;12.410;2022-12-07T09:07:11;20.23;;;11.35;;
70416;SDS011;57839;51.332;12.410;2022-12-07T09:09:36;20.90;;;11.43;;
70416;SDS011;57839;51.332;12.410;2022-12-07T09:12:02;19.85;;;10.27;;
70416;SDS011;57839;51.332;12.410;2022-12-07T09:14:28;18.15;;;10.77;;
70416;SDS011;57839;51.332;12.410;2022-12-07T09:16:54;17.10;;;10.15;;
70416;SDS011;57839;51.332;12.410;2022-12-07T09:19:19;16.58;;;10.52;;
70416;SDS011;57839;51.332;12.410;2022-12-07T09:21:45;19.73;;;11.07;;
70416;SDS011;57839;51.332;12.410;2022-12-07T09:24:11;20.30;;;10.88;;
70416;SDS011;57839;51.332;12.410;2022-12-07T09:26:38;18.25;;;10.00;;
70416;SDS011;57839;51.332;12.410;2022-12-07T09:29:05;19.00;;;10.20;;
70416;SDS011;57839;51.332;12.410;2022-12-07T09:31:31;17.23;;;10.57;;
70416;SDS011;57839;51.332;12.410;2022-12-07T09:33:58;17.95;;;9.68;;
70416;SDS011;57839;51.332;12.410;2022-12-07T09:36:24;17.80;;;10.05;;
70416;SDS011;57839;51.332;12.410;2022-12-07T09:38:51;18.38;;;10.48;;
70416;SDS011;57839;51.332;12.410;2022-12-07T09:41:16;22.70;;;13.85;;
70416;SDS011;57839;51.332;12.410;2022-12-07T09:43:42;36.17;;;18.83;;
70416;SDS011;57839;51.332;12.410;2022-12-07T09:46:09;17.33;;;10.18;;
70416;SDS011;57839;51.332;12.410;2022-12-07T09:48:40;16.42;;;10.07;;
70416;SDS011;57839;51.332;12.410;2022-12-07T09:51:14;18.75;;;10.10;;
70416;SDS011;57839;51.332;12.410;2022-12-07T09:53:40;20.00;;;11.00;;
70416;SDS011;57839;51.332;12.410;2022-12-07T09:56:06;19.27;;;11.27;;
70416;SDS011;57839;51.332;12.410;2022-12-07T09:58:34;19.08;;;10.15;;
70416;SDS011;57839;51.332;12.410;2022-12-07T10:01:01;19.85;;;10.35;;
70416;SDS011;57839;51.332;12.410;2022-12-07T10:03:31;17.90;;;10.07;;
70416;SDS011;57839;51.332;12.410;2022-12-07T10:05:57;16.80;;;10.98;;
70416;SDS011;57839;51.332;12.410;2022-12-07T10:08:24;18.45;;;10.68;;
70416;SDS011;57839;51.332;12.410;2022-12-07T10:10:51;19.33;;;10.38;;
70416;SDS011;57839;51.332;12.410;2022-12-07T10:13:22;19.73;;;10.10;;
70416;SDS011;57839;51.332;12.410;2022-12-07T10:15:59;18.20;;;11.07;;
70416;SDS011;57839;51.332;12.410;2022-12-07T10:28:56;22.75;;;11.35;;
70416;SDS011;57839;51.332;12.410;2022-12-07T10:31:24;19.50;;;10.82;;
70416;SDS011;57839;51.332;12.410;2022-12-07T10:33:53;18.92;;;11.52;;
70416;SDS011;57839;51.332;12.410;2022-12-07T10:38:59;17.10;;;9.65;;
70416;SDS011;57839;51.332;12.410;2022-12-07T10:41:25;16.05;;;9.52;;
70416;SDS011;57839;51.332;12.410;2022-12-07T10:43:52;15.95;;;9.45;;
70416;SDS011;57839;51.332;12.410;2022-12-07T11:00:37;14.73;;;8.48;;
70416;SDS011;57839;51.332;12.410;2022-12-07T11:06:31;13.00;;;7.88;;
70416;SDS011;57839;51.332;12.410;2022-12-07T11:11:43;11.57;;;7.32;;
70416;SDS011;57839;51.332;12.410;2022-12-07T11:22:16;7.13;;;5.15;;
70416;SDS011;57839;51.332;12.410;2022-12-07T11:30:23;13.38;;;7.75;;
70416;SDS011;57839;51.332;12.410;2022-12-07T11:36:25;16.02;;;7.85;;
70416;SDS011;57839;51.332;12.410;2022-12-07T11:38:44;12.25;;;7.57;;
70416;SDS011;57839;51.332;12.410;2022-12-07T11:41:14;17.70;;;8.63;;
70416;SDS011;57839;51.332;12.410;2022-12-07T11:43:59;11.40;;;7.43;;
70416;SDS011;57839;51.332;12.410;2022-12-07T11:52:14;19.92;;;10.82;;
70416;SDS011;57839;51.332;12.410;2022-12-07T11:54:46;13.55;;;8.38;;
70416;SDS011;57839;51.332;12.410;2022-12-07T11:57:22;12.70;;;8.25;;
70416;SDS011;57839;51.332;12.410;2022-12-07T11:59:52;14.75;;;7.18;;
70416;SDS011;57839;51.332;12.410;2022-12-07T12:02:24;10.68;;;7.50;;
70416;SDS011;57839;51.332;12.410;2022-12-07T12:08:03;14.00;;;8.10;;
70416;SDS011;57839;51.332;12.410;2022-12-07T12:21:26;9.88;;;5.50;;
70416;SDS011;57839;51.332;12.410;2022-12-07T12:23:57;12.35;;;6.03;;
70416;SDS011;57839;51.332;12.410;2022-12-07T12:26:27;11.23;;;6.40;;
70416;SDS011;57839;51.332;12.410;2022-12-07T12:28:58;11.68;;;5.88;;
70416;SDS011;57839;51.332;12.410;2022-12-07T12:34:01;10.82;;;4.78;;
70416;SDS011;57839;51.332;12.410;2022-12-07T12:54:20;5.88;;;3.97;;
70416;SDS011;57839;51.332;12.410;2022-12-07T12:59:36;6.07;;;3.25;;
70416;SDS011;57839;51.332;12.410;2022-12-07T13:04:59;6.65;;;3.70;;
70416;SDS011;57839;51.332;12.410;2022-12-07T13:15:47;7.55;;;3.15;;
70416;SDS011;57839;51.332;12.410;2022-12-07T13:18:39;6.55;;;3.40;;
70416;SDS011;57839;51.332;12.410;2022-12-07T13:23:54;4.32;;;2.90;;
70416;SDS011;57839;51.332;12.410;2022-12-07T13:31:44;9.15;;;3.33;;
70416;SDS011;57839;51.332;12.410;2022-12-07T13:37:01;4.97;;;2.67;;
70416;SDS011;57839;51.332;12.410;2022-12-07T13:39:28;4.85;;;2.40;;
70416;SDS011;57839;51.332;12.410;2022-12-07T13:41:54;3.47;;;2.30;;
70416;SDS011;57839;51.332;12.410;2022-12-07T13:44:22;5.18;;;2.10;;
70416;SDS011;57839;51.332;12.410;2022-12-07T13:47:06;5.20;;;2.60;;
70416;SDS011;57839;51.332;12.410;2022-12-07T13:49:47;2.60;;;2.20;;
70416;SDS011;57839;51.332;12.410;2022-12-07T13:52:21;5.78;;;2.90;;
70416;SDS011;57839;51.332;12.410;2022-12-07T13:54:49;3.45;;;2.50;;
70416;SDS011;57839;51.332;12.410;2022-12-07T13:57:24;4.07;;;2.60;;
70416;SDS011;57839;51.332;12.410;2022-12-07T13:59:51;4.88;;;2.45;;
70416;SDS011;57839;51.332;12.410;2022-12-07T14:02:27;7.30;;;2.80;;
70416;SDS011;57839;51.332;12.410;2022-12-07T14:07:55;5.35;;;2.65;;
70416;SDS011;57839;51.332;12.410;2022-12-07T14:10:32;4.40;;;2.70;;
70416;SDS011;57839;51.332;12.410;2022-12-07T14:13:00;4.20;;;2.40;;
70416;SDS011;57839;51.332;12.410;2022-12-07T14:15:28;6.03;;;2.40;;
70416;SDS011;57839;51.332;12.410;2022-12-07T14:17:56;4.57;;;2.17;;
70416;SDS011;57839;51.332;12.410;2022-12-07T14:22:57;4.22;;;3.03;;
70416;SDS011;57839;51.332;12.410;2022-12-07T14:25:24;6.00;;;2.65;;
70416;SDS011;57839;51.332;12.410;2022-12-07T14:27:54;3.92;;;2.60;;
70416;SDS011;57839;51.332;12.410;2022-12-07T14:30:24;5.85;;;2.67;;
70416;SDS011;57839;51.332;12.410;2022-12-07T14:32:59;13.63;;;6.68;;
70416;SDS011;57839;51.332;12.410;2022-12-07T14:35:26;5.82;;;2.60;;
70416;SDS011;57839;51.332;12.410;2022-12-07T14:37:52;4.75;;;2.33;;
70416;SDS011;57839;51.332;12.410;2022-12-07T14:40:20;6.68;;;2.60;;
70416;SDS011;57839;51.332;12.410;2022-12-07T14:42:54;4.80;;;2.88;;
70416;SDS011;57839;51.332;12.410;2022-12-07T14:45:22;3.45;;;2.60;;
70416;SDS011;57839;51.332;12.410;2022-12-07T14:47:48;5.72;;;2.33;;
70416;SDS011;57839;51.332;12.410;2022-12-07T14:50:15;6.18;;;2.50;;
70416;SDS011;57839;51.332;12.410;2022-12-07T14:52:44;5.63;;;2.72;;
70416;SDS011;57839;51.332;12.410;2022-12-07T14:55:13;6.20;;;2.42;;
70416;SDS011;57839;51.332;12.410;2022-12-07T14:57:41;4.97;;;2.45;;
70416;SDS011;57839;51.332;12.410;2022-12-07T15:00:07;5.28;;;2.30;;
70416;SDS011;57839;51.332;12.410;2022-12-07T15:02:34;6.07;;;2.70;;
70416;SDS011;57839;51.332;12.410;2022-12-07T15:05:00;4.90;;;2.80;;
70416;SDS011;57839;51.332;12.410;2022-12-07T15:07:25;3.35;;;2.25;;
70416;SDS011;57839;51.332;12.410;2022-12-07T15:09:51;3.28;;;2.00;;
70416;SDS011;57839;51.332;12.410;2022-12-07T15:12:17;6.40;;;2.42;;
70416;SDS011;57839;51.332;12.410;2022-12-07T15:14:42;3.45;;;2.53;;
70416;SDS011;57839;51.332;12.410;2022-12-07T15:17:09;3.95;;;2.38;;
70416;SDS011;57839;51.332;12.410;2022-12-07T15:19:36;5.13;;;2.20;;
70416;SDS011;57839;51.332;12.410;2022-12-07T15:22:02;4.35;;;2.15;;
70416;SDS011;57839;51.332;12.410;2022-12-07T15:24:28;5.28;;;2.53;;
70416;SDS011;57839;51.332;12.410;2022-12-07T15:26:53;4.57;;;2.22;;
70416;SDS011;57839;51.332;12.410;2022-12-07T15:29:19;7.65;;;2.30;;
70416;SDS011;57839;51.332;12.410;2022-12-07T15:31:44;8.40;;;2.63;;
70416;SDS011;57839;51.332;12.410;2022-12-07T15:34:10;6.10;;;2.45;;
70416;SDS011;57839;51.332;12.410;2022-12-07T15:36:36;4.20;;;2.88;;
70416;SDS011;57839;51.332;12.410;2022-12-07T15:39:01;5.85;;;2.67;;
70416;SDS011;57839;51.332;12.410;2022-12-07T15:41:27;5.32;;;2.65;;
70416;SDS011;57839;51.332;12.410;2022-12-07T15:43:53;4.20;;;2.30;;
70416;SDS011;57839;51.332;12.410;2022-12-07T15:46:38;9.05;;;3.00;;
70416;SDS011;57839;51.332;12.410;2022-12-07T15:49:15;5.95;;;2.50;;
70416;SDS011;57839;51.332;12.410;2022-12-07T15:51:42;6.82;;;2.60;;
70416;SDS011;57839;51.332;12.410;2022-12-07T15:54:12;5.80;;;2.08;;
70416;SDS011;57839;51.332;12.410;2022-12-07T15:56:43;4.57;;;2.40;;
70416;SDS011;57839;51.332;12.410;2022-12-07T15:59:08;7.18;;;3.08;;
70416;SDS011;57839;51.332;12.410;2022-12-07T16:01:34;6.97;;;2.80;;
70416;SDS011;57839;51.332;12.410;2022-12-07T16:03:59;8.75;;;6.28;;
70416;SDS011;57839;51.332;12.410;2022-12-07T16:06:26;15.00;;;7.57;;
70416;SDS011;57839;51.332;12.410;2022-12-07T16:08:52;5.32;;;2.60;;
70416;SDS011;57839;51.332;12.410;2022-12-07T16:11:17;6.85;;;2.70;;
70416;SDS011;57839;51.332;12.410;2022-12-07T16:13:43;4.63;;;2.78;;
70416;SDS011;57839;51.332;12.410;2022-12-07T16:16:12;6.95;;;2.70;;
70416;SDS011;57839;51.332;12.410;2022-12-07T16:18:39;4.65;;;2.65;;
70416;SDS011;57839;51.332;12.410;2022-12-07T16:21:05;6.13;;;3.15;;
70416;SDS011;57839;51.332;12.410;2022-12-07T16:23:31;17.90;;;9.13;;
70416;SDS011;57839;51.332;12.410;2022-12-07T16:26:11;8.63;;;4.22;;
70416;SDS011;57839;51.332;12.410;2022-12-07T16:28:38;6.68;;;3.55;;
70416;SDS011;57839;51.332;12.410;2022-12-07T16:31:04;6.07;;;3.55;;
70416;SDS011;57839;51.332;12.410;2022-12-07T16:33:37;5.15;;;3.63;;
70416;SDS011;57839;51.332;12.410;2022-12-07T16:36:03;6.97;;;4.03;;
70416;SDS011;57839;51.332;12.410;2022-12-07T16:38:30;6.63;;;3.67;;
70416;SDS011;57839;51.332;12.410;2022-12-07T16:40:55;6.80;;;3.75;;
70416;SDS011;57839;51.332;12.410;2022-12-07T16:43:21;7.32;;;3.28;;
70416;SDS011;57839;51.332;12.410;2022-12-07T16:45:47;8.35;;;4.03;;
70416;SDS011;57839;51.332;12.410;2022-12-07T16:48:13;4.85;;;3.97;;
70416;SDS011;57839;51.332;12.410;2022-12-07T16:50:39;5.00;;;3.80;;
70416;SDS011;57839;51.332;12.410;2022-12-07T16:53:06;6.43;;;4.47;;
70416;SDS011;57839;51.332;12.410;2022-12-07T16:55:39;6.82;;;3.72;;
70416;SDS011;57839;51.332;12.410;2022-12-07T16:58:05;8.23;;;4.20;;